createdAt,value
2023-04-14T00:00:01.628Z,4.60
2023-04-14T00:00:12.728Z,4.10
2023-04-14T00:00:23.648Z,4.00
2023-04-14T00:00:34.414Z,3.40
2023-04-14T00:00:45.468Z,4.00
2023-04-14T00:00:56.427Z,3.60
2023-04-14T00:01:07.189Z,3.50
2023-04-14T00:01:18.237Z,4.00
2023-04-14T00:01:29.208Z,4.10
2023-04-14T00:01:39.964Z,4.20
2023-04-14T00:01:51.080Z,3.60
2023-04-14T00:02:02.063Z,4.10
2023-04-14T00:02:12.911Z,3.50
2023-04-14T00:02:23.613Z,3.40
2023-04-14T00:02:34.194Z,3.10
2023-04-14T00:02:45.123Z,3.70
2023-04-14T00:02:55.691Z,4.20
2023-04-14T00:03:06.411Z,4.80
2023-04-14T00:03:17.588Z,3.90
2023-04-14T00:03:28.375Z,3.00
2023-04-14T00:03:39.062Z,2.40
2023-04-14T00:03:49.998Z,2.50
2023-04-14T00:04:00.775Z,2.30
2023-04-14T00:04:11.477Z,3.00
2023-04-14T00:04:22.509Z,3.80
2023-04-14T00:04:33.524Z,4.00
2023-04-14T00:04:43.754Z,3.70
2023-04-14T00:04:54.657Z,4.10
2023-04-14T00:05:05.231Z,3.60
2023-04-14T00:05:16.301Z,4.00
2023-04-14T00:05:27.084Z,3.20
2023-04-14T00:05:38.126Z,3.60
2023-04-14T00:05:49.105Z,3.00
2023-04-14T00:05:59.876Z,3.00
2023-04-14T00:06:10.905Z,3.00
2023-04-14T00:06:21.870Z,3.10
2023-04-14T00:06:32.641Z,3.40
2023-04-14T00:06:43.679Z,2.90
2023-04-14T00:06:54.648Z,3.40
2023-04-14T00:07:05.416Z,2.90
2023-04-14T00:07:16.466Z,2.80
2023-04-14T00:07:27.420Z,3.00
2023-04-14T00:07:38.186Z,3.50
2023-04-14T00:07:49.237Z,3.20
2023-04-14T00:08:00.207Z,3.10
2023-04-14T00:08:10.973Z,2.40
2023-04-14T00:08:22.012Z,2.80
2023-04-14T00:08:32.978Z,3.60
2023-04-14T00:08:43.752Z,3.80
2023-04-14T00:08:54.826Z,3.70
2023-04-14T00:09:05.777Z,2.50
2023-04-14T00:09:16.543Z,3.10
2023-04-14T00:09:27.601Z,3.40
2023-04-14T00:09:38.560Z,4.20
2023-04-14T00:09:49.325Z,4.00
2023-04-14T00:10:00.383Z,3.30
2023-04-14T00:10:11.336Z,3.60
2023-04-14T00:10:22.096Z,3.10
2023-04-14T00:10:33.158Z,3.30
2023-04-14T00:10:44.110Z,2.60
2023-04-14T00:10:54.876Z,3.00
2023-04-14T00:11:05.928Z,2.60
2023-04-14T00:11:16.909Z,2.50
2023-04-14T00:11:27.657Z,2.70
2023-04-14T00:11:38.713Z,3.20
2023-04-14T00:11:49.666Z,3.50
2023-04-14T00:12:00.450Z,2.70
2023-04-14T00:12:11.477Z,2.50
2023-04-14T00:12:22.446Z,2.70
2023-04-14T00:12:33.209Z,3.10
2023-04-14T00:12:44.255Z,3.10
2023-04-14T00:12:55.220Z,3.10
2023-04-14T00:13:05.982Z,3.30
2023-04-14T00:13:17.027Z,3.50
2023-04-14T00:13:27.993Z,3.40
2023-04-14T00:13:38.965Z,3.50
2023-04-14T00:13:50.009Z,4.10
2023-04-14T00:14:00.999Z,4.40
2023-04-14T00:14:11.757Z,4.80
2023-04-14T00:14:22.822Z,4.40
2023-04-14T00:14:33.785Z,4.30
2023-04-14T00:14:44.546Z,4.10
2023-04-14T00:14:55.301Z,4.70
2023-04-14T00:15:06.271Z,4.50
2023-04-14T00:15:17.041Z,4.40
2023-04-14T00:15:28.079Z,3.60
2023-04-14T00:15:39.048Z,3.70
2023-04-14T00:15:49.835Z,2.90
2023-04-14T00:16:00.862Z,3.20
2023-04-14T00:16:11.831Z,3.50
2023-04-14T00:16:22.624Z,3.20
2023-04-14T00:16:33.664Z,2.90
2023-04-14T00:16:44.622Z,3.30
2023-04-14T00:16:55.405Z,3.90
2023-04-14T00:17:06.475Z,4.20
2023-04-14T00:17:17.433Z,3.80
2023-04-14T00:17:28.237Z,3.60
2023-04-14T00:17:39.268Z,4.20
2023-04-14T00:17:50.028Z,3.90
2023-04-14T00:18:00.883Z,3.70
2023-04-14T00:18:11.396Z,3.40
2023-04-14T00:18:22.361Z,4.20
2023-04-14T00:18:33.121Z,4.30
2023-04-14T00:18:44.168Z,4.20
2023-04-14T00:18:55.135Z,3.50
2023-04-14T00:19:05.906Z,4.00
2023-04-14T00:19:16.960Z,4.50
2023-04-14T00:19:27.916Z,4.40
2023-04-14T00:19:38.698Z,3.50
2023-04-14T00:19:49.743Z,3.50
2023-04-14T00:20:00.724Z,3.80
2023-04-14T00:20:11.484Z,4.10
2023-04-14T00:20:22.516Z,3.60
2023-04-14T00:20:33.497Z,3.70
2023-04-14T00:20:44.244Z,4.60
2023-04-14T00:20:55.289Z,4.20
2023-04-14T00:21:06.262Z,3.50
2023-04-14T00:21:17.019Z,3.30
2023-04-14T00:21:28.079Z,4.40
2023-04-14T00:21:39.027Z,4.10
2023-04-14T00:21:49.798Z,4.30
2023-04-14T00:22:00.839Z,3.90
2023-04-14T00:22:11.815Z,3.50
2023-04-14T00:22:22.573Z,4.80
2023-04-14T00:22:33.614Z,4.50
2023-04-14T00:22:44.583Z,4.10
2023-04-14T00:22:55.354Z,4.30
2023-04-14T00:23:06.404Z,4.40
2023-04-14T00:23:17.386Z,4.70
2023-04-14T00:23:28.140Z,4.20
2023-04-14T00:23:39.183Z,3.90
2023-04-14T00:23:50.153Z,4.00
2023-04-14T00:24:00.935Z,3.40
2023-04-14T00:24:11.983Z,3.50
2023-04-14T00:24:22.941Z,3.30
2023-04-14T00:24:33.702Z,3.00
2023-04-14T00:24:44.762Z,3.70
2023-04-14T00:24:55.729Z,4.10
2023-04-14T00:25:06.521Z,3.40
2023-04-14T00:25:17.549Z,4.50
2023-04-14T00:25:28.508Z,5.00
2023-04-14T00:25:39.277Z,4.90
2023-04-14T00:25:50.325Z,4.00
2023-04-14T00:26:01.292Z,3.20
2023-04-14T00:26:12.058Z,3.60
2023-04-14T00:26:23.101Z,3.70
2023-04-14T00:26:34.066Z,3.40
2023-04-14T00:26:44.840Z,3.00
2023-04-14T00:26:55.873Z,3.60
2023-04-14T00:27:06.846Z,3.90
2023-04-14T00:27:17.611Z,3.90
2023-04-14T00:27:28.653Z,4.10
2023-04-14T00:27:39.622Z,3.60
2023-04-14T00:27:50.383Z,4.00
2023-04-14T00:28:01.432Z,3.50
2023-04-14T00:28:12.396Z,3.70
2023-04-14T00:28:23.157Z,2.80
2023-04-14T00:28:34.203Z,3.30
2023-04-14T00:28:45.168Z,3.70
2023-04-14T00:28:55.928Z,3.80
2023-04-14T00:29:06.981Z,4.00
2023-04-14T00:29:17.950Z,4.50
2023-04-14T00:29:28.717Z,5.00
2023-04-14T00:29:39.764Z,4.40
2023-04-14T00:29:50.739Z,4.20
2023-04-14T00:30:01.509Z,4.00
2023-04-14T00:30:12.557Z,3.60
2023-04-14T00:30:23.528Z,3.80
2023-04-14T00:30:34.300Z,3.90
2023-04-14T00:30:45.357Z,3.30
2023-04-14T00:30:56.329Z,2.30
2023-04-14T00:31:07.130Z,2.50
2023-04-14T00:31:18.181Z,3.70
2023-04-14T00:31:29.161Z,4.10
2023-04-14T00:31:39.996Z,4.20
2023-04-14T00:31:50.484Z,3.20
2023-04-14T00:32:01.497Z,2.90
2023-04-14T00:32:12.224Z,3.30
2023-04-14T00:32:23.329Z,3.00
2023-04-14T00:32:34.297Z,3.00
2023-04-14T00:32:45.084Z,3.30
2023-04-14T00:32:56.128Z,3.60
2023-04-14T00:33:07.056Z,3.50
2023-04-14T00:33:17.818Z,3.00
2023-04-14T00:33:28.870Z,2.60
2023-04-14T00:33:39.832Z,3.40
2023-04-14T00:33:50.597Z,3.30
2023-04-14T00:34:01.660Z,3.30
2023-04-14T00:34:12.640Z,3.00
2023-04-14T00:34:23.385Z,3.00
2023-04-14T00:34:34.438Z,2.80
2023-04-14T00:34:45.407Z,2.40
2023-04-14T00:34:56.170Z,2.20
2023-04-14T00:35:07.213Z,2.40
2023-04-14T00:35:18.194Z,3.10
2023-04-14T00:35:28.955Z,3.30
2023-04-14T00:35:40.004Z,3.70
2023-04-14T00:35:50.975Z,3.10
2023-04-14T00:36:01.729Z,2.90
2023-04-14T00:36:12.784Z,2.30
2023-04-14T00:36:23.742Z,3.10
2023-04-14T00:36:34.509Z,3.00
2023-04-14T00:36:45.563Z,3.30
2023-04-14T00:36:56.517Z,2.60
2023-04-14T00:37:07.282Z,3.10
2023-04-14T00:37:18.325Z,3.60
2023-04-14T00:37:29.305Z,3.80
2023-04-14T00:37:40.094Z,4.50
2023-04-14T00:37:51.100Z,4.10
2023-04-14T00:38:02.124Z,3.60
2023-04-14T00:38:12.851Z,3.90
2023-04-14T00:38:23.951Z,4.70
2023-04-14T00:38:34.885Z,4.20
2023-04-14T00:38:45.635Z,3.30
2023-04-14T00:38:56.688Z,3.20
2023-04-14T00:39:07.670Z,4.20
2023-04-14T00:39:18.410Z,3.80
2023-04-14T00:39:29.471Z,3.60
2023-04-14T00:39:40.441Z,4.10
2023-04-14T00:39:51.229Z,4.60
2023-04-14T00:40:02.339Z,3.60
2023-04-14T00:40:13.289Z,3.00
2023-04-14T00:40:24.052Z,3.50
2023-04-14T00:40:35.113Z,3.90
2023-04-14T00:40:46.064Z,3.80
2023-04-14T00:40:56.831Z,3.90
2023-04-14T00:41:07.870Z,4.30
2023-04-14T00:41:18.837Z,4.00
2023-04-14T00:41:29.601Z,3.90
2023-04-14T00:41:40.663Z,3.20
2023-04-14T00:41:51.628Z,2.90
2023-04-14T00:42:02.398Z,3.90
2023-04-14T00:42:13.440Z,4.20
2023-04-14T00:42:24.402Z,3.70
2023-04-14T00:42:35.172Z,3.90
2023-04-14T00:42:46.217Z,4.20
2023-04-14T00:42:57.177Z,3.90
2023-04-14T00:43:07.955Z,3.60
2023-04-14T00:43:19.004Z,2.70
2023-04-14T00:43:29.954Z,2.60
2023-04-14T00:43:40.712Z,2.20
2023-04-14T00:43:51.763Z,2.40
2023-04-14T00:44:02.733Z,2.50
2023-04-14T00:44:13.490Z,3.90
2023-04-14T00:44:24.531Z,4.30
2023-04-14T00:44:35.508Z,5.00
2023-04-14T00:44:46.283Z,3.80
2023-04-14T00:44:57.323Z,3.80
2023-04-14T00:45:08.323Z,3.30
2023-04-14T00:45:19.065Z,3.90
2023-04-14T00:45:30.115Z,4.60
2023-04-14T00:45:41.072Z,4.00
2023-04-14T00:45:51.866Z,4.30
2023-04-14T00:46:02.927Z,3.80
2023-04-14T00:46:13.899Z,3.40
2023-04-14T00:46:24.663Z,2.90
2023-04-14T00:46:35.698Z,2.90
2023-04-14T00:46:46.667Z,2.80
2023-04-14T00:46:57.416Z,3.10
2023-04-14T00:47:08.459Z,3.60
2023-04-14T00:47:19.472Z,4.10
2023-04-14T00:47:30.234Z,4.30
2023-04-14T00:47:41.284Z,4.00
2023-04-14T00:47:52.232Z,3.40
2023-04-14T00:48:02.993Z,3.40
2023-04-14T00:48:14.031Z,3.60
2023-04-14T00:48:25.005Z,3.30
2023-04-14T00:48:35.761Z,3.20
2023-04-14T00:48:46.806Z,3.40
2023-04-14T00:48:57.864Z,2.90
2023-04-14T00:49:08.597Z,3.90
2023-04-14T00:49:19.641Z,5.80
2023-04-14T00:49:30.623Z,5.50
2023-04-14T00:49:41.404Z,4.40
2023-04-14T00:49:52.446Z,3.30
2023-04-14T00:50:03.411Z,3.20
2023-04-14T00:50:14.182Z,2.70
2023-04-14T00:50:25.231Z,2.50
2023-04-14T00:50:36.200Z,3.20
2023-04-14T00:50:46.958Z,3.20
2023-04-14T00:50:58.005Z,3.70
2023-04-14T00:51:08.973Z,3.40
2023-04-14T00:51:19.729Z,3.70
2023-04-14T00:51:30.782Z,4.10
2023-04-14T00:51:41.743Z,3.50
2023-04-14T00:51:52.506Z,2.80
2023-04-14T00:52:03.555Z,3.00
2023-04-14T00:52:14.514Z,4.10
2023-04-14T00:52:25.278Z,4.10
2023-04-14T00:52:36.323Z,4.00
2023-04-14T00:52:47.291Z,3.00
2023-04-14T00:52:58.055Z,3.50
2023-04-14T00:53:09.099Z,3.60
2023-04-14T00:53:20.080Z,4.10
2023-04-14T00:53:30.837Z,4.20
2023-04-14T00:53:41.885Z,4.40
2023-04-14T00:53:52.853Z,3.80
2023-04-14T00:54:03.624Z,3.40
2023-04-14T00:54:14.695Z,3.30
2023-04-14T00:54:25.637Z,3.30
2023-04-14T00:54:36.467Z,3.00
2023-04-14T00:54:47.458Z,2.60
2023-04-14T00:54:58.423Z,2.70
2023-04-14T00:55:09.184Z,2.70
2023-04-14T00:55:20.237Z,2.80
2023-04-14T00:55:31.203Z,3.10
2023-04-14T00:55:41.976Z,4.70
2023-04-14T00:55:53.016Z,4.10
2023-04-14T00:56:03.978Z,4.10
2023-04-14T00:56:14.739Z,4.10
2023-04-14T00:56:25.789Z,4.20
2023-04-14T00:56:36.774Z,4.00
2023-04-14T00:56:47.527Z,3.90
2023-04-14T00:56:58.590Z,3.80
2023-04-14T00:57:09.536Z,3.90
2023-04-14T00:57:20.309Z,4.20
2023-04-14T00:57:31.349Z,4.20
2023-04-14T00:57:42.300Z,3.50
2023-04-14T00:57:53.068Z,2.80
2023-04-14T00:58:04.110Z,2.90
2023-04-14T00:58:15.088Z,3.30
2023-04-14T00:58:25.838Z,4.10
2023-04-14T00:58:36.878Z,3.30
2023-04-14T00:58:47.848Z,3.70
2023-04-14T00:58:58.952Z,3.20
2023-04-14T00:59:09.611Z,3.10
2023-04-14T00:59:20.578Z,3.40
2023-04-14T00:59:31.348Z,3.80
2023-04-14T00:59:42.400Z,3.60
2023-04-14T00:59:53.369Z,3.00
2023-04-14T01:00:04.131Z,2.70
2023-04-14T01:00:15.174Z,3.40
2023-04-14T01:00:26.159Z,4.00
2023-04-14T01:00:36.932Z,4.60
2023-04-14T01:00:47.966Z,4.40
2023-04-14T01:00:58.937Z,3.80
2023-04-14T01:01:09.712Z,3.40
2023-04-14T01:01:20.812Z,3.30
2023-04-14T01:01:31.790Z,3.70
2023-04-14T01:01:42.567Z,4.20
2023-04-14T01:01:53.094Z,4.80
2023-04-14T01:02:04.223Z,4.60
2023-04-14T01:02:15.195Z,3.90
2023-04-14T01:02:25.939Z,3.30
2023-04-14T01:02:36.766Z,4.30
2023-04-14T01:02:47.387Z,5.10
2023-04-14T01:02:58.105Z,4.00
2023-04-14T01:03:09.220Z,4.00
2023-04-14T01:03:20.135Z,3.80
2023-04-14T01:03:30.876Z,3.90
2023-04-14T01:03:41.595Z,4.30
2023-04-14T01:03:52.525Z,4.30
2023-04-14T01:04:03.168Z,4.20
2023-04-14T01:04:14.245Z,3.60
2023-04-14T01:04:33.546Z,4.30
2023-04-14T01:04:49.728Z,4.20
2023-04-14T01:04:54.209Z,4.60
2023-04-14T01:04:58.927Z,3.70
2023-04-14T01:05:08.404Z,3.30
2023-04-14T01:05:19.000Z,3.30
2023-04-14T01:05:29.818Z,3.30
2023-04-14T01:05:40.866Z,3.70
2023-04-14T01:05:51.821Z,3.20
2023-04-14T01:06:02.580Z,4.90
2023-04-14T01:06:13.629Z,4.70
2023-04-14T01:06:24.587Z,5.70
2023-04-14T01:06:35.354Z,4.40
2023-04-14T01:06:46.402Z,3.90
2023-04-14T01:06:57.365Z,3.10
2023-04-14T01:07:08.127Z,3.60
2023-04-14T01:07:19.172Z,4.10
2023-04-14T01:07:30.141Z,4.10
2023-04-14T01:07:40.900Z,3.60
2023-04-14T01:07:51.958Z,3.00
2023-04-14T01:08:02.916Z,4.00
2023-04-14T01:08:13.688Z,3.60
2023-04-14T01:08:24.724Z,3.30
2023-04-14T01:08:35.691Z,3.80
2023-04-14T01:08:46.457Z,3.90
2023-04-14T01:08:57.678Z,3.70
2023-04-14T01:09:08.078Z,3.50
2023-04-14T01:09:18.860Z,3.40
2023-04-14T01:09:29.887Z,4.40
2023-04-14T01:09:40.871Z,3.90
2023-04-14T01:09:51.618Z,4.00
2023-04-14T01:10:02.677Z,4.00
2023-04-14T01:10:13.664Z,4.20
2023-04-14T01:10:24.406Z,4.50
2023-04-14T01:10:35.452Z,5.20
2023-04-14T01:10:46.428Z,5.10
2023-04-14T01:10:57.186Z,4.10
2023-04-14T01:11:08.238Z,3.60
2023-04-14T01:11:19.203Z,3.80
2023-04-14T01:11:29.965Z,3.70
2023-04-14T01:11:41.011Z,4.00
2023-04-14T01:11:51.978Z,4.40
2023-04-14T01:12:02.744Z,4.40
2023-04-14T01:12:13.785Z,3.70
2023-04-14T01:12:24.747Z,3.30
2023-04-14T01:12:35.517Z,3.70
2023-04-14T01:12:46.566Z,4.70
2023-04-14T01:12:57.532Z,5.00
2023-04-14T01:13:08.291Z,5.00
2023-04-14T01:13:19.329Z,3.40
2023-04-14T01:13:30.294Z,3.20
2023-04-14T01:13:41.072Z,4.00
2023-04-14T01:13:52.114Z,4.80
2023-04-14T01:14:03.072Z,4.40
2023-04-14T01:14:13.853Z,4.00
2023-04-14T01:14:24.883Z,4.90
2023-04-14T01:14:35.849Z,4.50
2023-04-14T01:14:46.608Z,4.20
2023-04-14T01:14:57.654Z,3.90
2023-04-14T01:15:08.636Z,4.40
2023-04-14T01:15:19.392Z,4.00
2023-04-14T01:15:30.459Z,3.20
2023-04-14T01:15:41.515Z,3.20
2023-04-14T01:15:52.347Z,3.30
2023-04-14T01:16:03.381Z,3.70
2023-04-14T01:16:14.353Z,3.80
2023-04-14T01:16:25.143Z,3.40
2023-04-14T01:16:36.218Z,3.40
2023-04-14T01:16:47.187Z,3.60
2023-04-14T01:16:57.937Z,3.70
2023-04-14T01:17:08.989Z,4.20
2023-04-14T01:17:19.971Z,3.60
2023-04-14T01:17:30.739Z,3.80
2023-04-14T01:17:41.793Z,3.80
2023-04-14T01:17:52.782Z,4.40
2023-04-14T01:18:03.577Z,4.10
2023-04-14T01:18:14.079Z,3.30
2023-04-14T01:18:25.050Z,2.50
2023-04-14T01:18:35.808Z,3.20
2023-04-14T01:18:46.858Z,3.00
2023-04-14T01:18:58.028Z,4.30
2023-04-14T01:19:08.899Z,3.70
2023-04-14T01:19:19.944Z,4.30
2023-04-14T01:19:30.910Z,3.90
2023-04-14T01:19:41.675Z,4.70
2023-04-14T01:19:52.722Z,4.10
2023-04-14T01:20:03.683Z,4.60
2023-04-14T01:20:14.471Z,3.70
2023-04-14T01:20:25.509Z,3.40
2023-04-14T01:20:36.496Z,3.40
2023-04-14T01:20:47.268Z,3.40
2023-04-14T01:20:58.327Z,3.30
2023-04-14T01:21:09.280Z,3.00
2023-04-14T01:21:20.046Z,3.00
2023-04-14T01:21:31.090Z,3.10
2023-04-14T01:21:42.064Z,3.20
2023-04-14T01:21:52.825Z,3.00
2023-04-14T01:22:03.880Z,3.20
2023-04-14T01:22:14.837Z,2.90
2023-04-14T01:22:25.598Z,2.60
2023-04-14T01:22:36.640Z,2.70
2023-04-14T01:22:47.611Z,3.10
2023-04-14T01:22:58.374Z,3.10
2023-04-14T01:23:09.447Z,3.60
2023-04-14T01:23:20.398Z,4.00
2023-04-14T01:23:31.157Z,3.80
2023-04-14T01:23:42.207Z,3.10
2023-04-14T01:23:53.171Z,3.30
2023-04-14T01:24:03.933Z,2.90
2023-04-14T01:24:14.971Z,2.70
2023-04-14T01:24:25.964Z,2.40
2023-04-14T01:24:36.702Z,2.30
2023-04-14T01:24:47.755Z,3.10
2023-04-14T01:24:58.708Z,4.10
2023-04-14T01:25:09.470Z,3.50
2023-04-14T01:25:20.531Z,3.30
2023-04-14T01:25:31.507Z,3.10
2023-04-14T01:25:42.266Z,3.90
2023-04-14T01:25:53.320Z,3.80
2023-04-14T01:26:04.291Z,4.50
2023-04-14T01:26:15.058Z,4.40
2023-04-14T01:26:26.108Z,4.20
2023-04-14T01:26:37.063Z,2.90
2023-04-14T01:26:47.828Z,2.60
2023-04-14T01:26:58.880Z,2.90
2023-04-14T01:27:09.835Z,3.40
2023-04-14T01:27:20.602Z,3.90
2023-04-14T01:27:31.651Z,4.10
2023-04-14T01:27:42.630Z,5.00
2023-04-14T01:27:53.377Z,4.40
2023-04-14T01:28:04.427Z,4.10
2023-04-14T01:28:15.405Z,3.40
2023-04-14T01:28:26.154Z,3.30
2023-04-14T01:28:37.211Z,2.80
2023-04-14T01:28:48.191Z,2.50
2023-04-14T01:28:59.382Z,2.60
2023-04-14T01:29:10.030Z,2.50
2023-04-14T01:29:21.002Z,3.50
2023-04-14T01:29:31.780Z,3.10
2023-04-14T01:29:42.818Z,3.30
2023-04-14T01:29:53.787Z,1.80
2023-04-14T01:30:04.579Z,2.50
2023-04-14T01:30:15.597Z,3.20
2023-04-14T01:30:26.581Z,3.70
2023-04-14T01:30:37.344Z,3.80
2023-04-14T01:30:48.390Z,4.00
2023-04-14T01:30:59.363Z,4.60
2023-04-14T01:31:10.167Z,4.60
2023-04-14T01:31:21.227Z,4.30
2023-04-14T01:31:32.206Z,3.50
2023-04-14T01:31:42.950Z,2.50
2023-04-14T01:31:54.144Z,2.30
2023-04-14T01:32:04.581Z,2.60
2023-04-14T01:32:15.337Z,2.90
2023-04-14T01:32:26.451Z,2.90
2023-04-14T01:32:37.375Z,2.80
2023-04-14T01:32:48.178Z,2.30
2023-04-14T01:32:59.213Z,2.10
2023-04-14T01:33:10.159Z,2.50
2023-04-14T01:33:20.923Z,3.00
2023-04-14T01:33:31.973Z,3.30
2023-04-14T01:33:42.937Z,2.60
2023-04-14T01:33:53.699Z,3.30
2023-04-14T01:34:04.741Z,3.70
2023-04-14T01:34:15.721Z,3.40
2023-04-14T01:34:26.473Z,3.30
2023-04-14T01:34:37.512Z,2.70
2023-04-14T01:34:48.485Z,3.30
2023-04-14T01:34:59.240Z,3.30
2023-04-14T01:35:10.298Z,3.20
2023-04-14T01:35:21.268Z,3.00
2023-04-14T01:35:32.037Z,3.50
2023-04-14T01:35:43.091Z,3.20
2023-04-14T01:35:54.058Z,3.70
2023-04-14T01:36:04.820Z,3.00
2023-04-14T01:36:15.872Z,3.30
2023-04-14T01:36:26.830Z,2.80
2023-04-14T01:36:37.604Z,3.10
2023-04-14T01:36:48.652Z,2.50
2023-04-14T01:36:59.614Z,2.20
2023-04-14T01:37:10.380Z,2.30
2023-04-14T01:37:21.446Z,3.10
2023-04-14T01:37:32.387Z,2.90
2023-04-14T01:37:43.153Z,2.50
2023-04-14T01:37:54.196Z,1.60
2023-04-14T01:38:05.180Z,2.10
2023-04-14T01:38:15.933Z,2.40
2023-04-14T01:38:26.981Z,2.10
2023-04-14T01:38:37.945Z,2.70
2023-04-14T01:38:48.711Z,2.50
2023-04-14T01:39:00.001Z,2.50
2023-04-14T01:39:10.580Z,1.90
2023-04-14T01:39:21.338Z,2.20
2023-04-14T01:39:32.404Z,2.30
2023-04-14T01:39:43.350Z,2.30
2023-04-14T01:39:54.115Z,2.50
2023-04-14T01:40:05.170Z,3.90
2023-04-14T01:40:16.137Z,3.80
2023-04-14T01:40:26.900Z,2.70
2023-04-14T01:40:37.967Z,2.60
2023-04-14T01:40:48.953Z,3.20
2023-04-14T01:40:59.687Z,2.50
2023-04-14T01:41:10.833Z,1.90
2023-04-14T01:41:21.806Z,2.10
2023-04-14T01:41:32.565Z,2.10
2023-04-14T01:41:43.621Z,2.40
2023-04-14T01:41:54.575Z,1.80
2023-04-14T01:42:05.345Z,2.00
2023-04-14T01:42:16.404Z,2.10
2023-04-14T01:42:27.358Z,2.10
2023-04-14T01:42:38.127Z,1.80
2023-04-14T01:42:49.190Z,2.50
2023-04-14T01:43:00.142Z,2.70
2023-04-14T01:43:10.901Z,2.20
2023-04-14T01:43:21.948Z,1.90
2023-04-14T01:43:32.919Z,1.90
2023-04-14T01:43:43.685Z,1.40
2023-04-14T01:43:54.725Z,1.10
2023-04-14T01:44:05.701Z,1.10
2023-04-14T01:44:16.491Z,1.50
2023-04-14T01:44:27.516Z,1.90
2023-04-14T01:44:38.510Z,2.50
2023-04-14T01:44:49.240Z,3.00
2023-04-14T01:45:00.280Z,3.00
2023-04-14T01:45:11.244Z,2.70
2023-04-14T01:45:22.090Z,2.80
2023-04-14T01:45:33.162Z,2.10
2023-04-14T01:45:44.113Z,2.30
2023-04-14T01:45:54.860Z,1.80
2023-04-14T01:46:05.977Z,1.70
2023-04-14T01:46:16.944Z,1.50
2023-04-14T01:46:27.703Z,1.60
2023-04-14T01:46:38.734Z,1.80
2023-04-14T01:46:49.714Z,2.00
2023-04-14T01:47:00.464Z,1.90
2023-04-14T01:47:11.523Z,1.40
2023-04-14T01:47:22.507Z,1.10
2023-04-14T01:47:33.339Z,1.20
2023-04-14T01:47:44.445Z,1.30
2023-04-14T01:47:55.456Z,1.10
2023-04-14T01:48:06.252Z,1.30
2023-04-14T01:48:17.269Z,1.70
2023-04-14T01:48:28.226Z,2.30
2023-04-14T01:48:38.991Z,2.50
2023-04-14T01:48:50.039Z,1.90
2023-04-14T01:49:01.280Z,1.20
2023-04-14T01:49:12.136Z,2.10
2023-04-14T01:49:23.210Z,2.80
2023-04-14T01:49:34.183Z,2.50
2023-04-14T01:49:44.948Z,1.60
2023-04-14T01:49:55.984Z,1.00
2023-04-14T01:50:06.949Z,0.80
2023-04-14T01:50:17.695Z,1.10
2023-04-14T01:50:28.744Z,1.10
2023-04-14T01:50:39.705Z,1.80
2023-04-14T01:50:50.482Z,1.50
2023-04-14T01:51:01.528Z,2.10
2023-04-14T01:51:12.495Z,2.20
2023-04-14T01:51:23.296Z,2.90
2023-04-14T01:51:34.308Z,2.10
2023-04-14T01:51:45.275Z,1.20
2023-04-14T01:51:56.043Z,1.00
2023-04-14T01:52:07.082Z,0.70
2023-04-14T01:52:18.050Z,0.90
2023-04-14T01:52:28.829Z,1.10
2023-04-14T01:52:39.860Z,1.20
2023-04-14T01:52:50.827Z,1.30
2023-04-14T01:53:01.594Z,1.70
2023-04-14T01:53:12.635Z,1.70
2023-04-14T01:53:23.601Z,1.70
2023-04-14T01:53:34.365Z,1.20
2023-04-14T01:53:44.918Z,1.20
2023-04-14T01:53:55.886Z,1.60
2023-04-14T01:54:06.649Z,1.50
2023-04-14T01:54:17.694Z,1.20
2023-04-14T01:54:28.664Z,1.10
2023-04-14T01:54:39.450Z,1.60
2023-04-14T01:54:50.482Z,1.70
2023-04-14T01:55:01.447Z,1.60
2023-04-14T01:55:12.216Z,0.90
2023-04-14T01:55:23.262Z,1.30
2023-04-14T01:55:34.225Z,1.50
2023-04-14T01:55:44.989Z,1.60
2023-04-14T01:55:56.053Z,1.30
2023-04-14T01:56:07.012Z,1.20
2023-04-14T01:56:17.788Z,1.30
2023-04-14T01:56:28.830Z,1.10
2023-04-14T01:56:39.797Z,1.00
2023-04-14T01:56:50.567Z,0.70
2023-04-14T01:57:01.650Z,1.50
2023-04-14T01:57:12.657Z,1.80
2023-04-14T01:57:23.424Z,2.30
2023-04-14T01:57:34.458Z,2.40
2023-04-14T01:57:45.425Z,2.20
2023-04-14T01:57:56.190Z,2.00
2023-04-14T01:58:07.262Z,1.40
2023-04-14T01:58:18.203Z,1.50
2023-04-14T01:58:28.962Z,1.90
2023-04-14T01:58:40.008Z,1.50
2023-04-14T01:58:50.978Z,1.40
2023-04-14T01:59:02.067Z,1.40
2023-04-14T01:59:12.705Z,1.60
2023-04-14T01:59:23.666Z,1.40
2023-04-14T01:59:34.432Z,2.00
2023-04-14T01:59:45.483Z,1.40
2023-04-14T01:59:56.443Z,1.40
2023-04-14T02:00:07.201Z,1.30
2023-04-14T02:00:18.263Z,1.50
2023-04-14T02:00:29.219Z,1.90
2023-04-14T02:00:40.006Z,1.60
2023-04-14T02:00:51.071Z,1.90
2023-04-14T02:01:02.109Z,1.80
2023-04-14T02:01:12.915Z,1.60
2023-04-14T02:01:23.959Z,1.50
2023-04-14T02:01:34.974Z,1.50
2023-04-14T02:01:45.788Z,1.70
2023-04-14T02:01:56.850Z,1.70
2023-04-14T02:02:07.816Z,1.50
2023-04-14T02:02:18.706Z,1.30
2023-04-14T02:02:29.357Z,1.30
2023-04-14T02:02:39.903Z,1.20
2023-04-14T02:02:50.710Z,1.60
2023-04-14T02:03:01.334Z,1.60
2023-04-14T02:03:12.354Z,1.70
2023-04-14T02:03:23.278Z,1.50
2023-04-14T02:03:33.991Z,1.10
2023-04-14T02:03:44.550Z,1.30
2023-04-14T02:03:55.398Z,1.20
2023-04-14T02:04:06.548Z,1.20
2023-04-14T02:04:17.137Z,1.30
2023-04-14T02:04:27.940Z,1.30
2023-04-14T02:04:38.982Z,1.50
2023-04-14T02:04:49.946Z,1.30
2023-04-14T02:05:00.708Z,1.20
2023-04-14T02:05:11.765Z,1.10
2023-04-14T02:05:22.734Z,1.70
2023-04-14T02:05:33.492Z,2.20
2023-04-14T02:05:44.536Z,2.40
2023-04-14T02:05:55.519Z,1.70
2023-04-14T02:06:06.349Z,1.10
2023-04-14T02:06:16.815Z,1.00
2023-04-14T02:06:27.777Z,2.00
2023-04-14T02:06:38.556Z,2.10
2023-04-14T02:06:49.597Z,1.90
2023-04-14T02:07:00.578Z,2.30
2023-04-14T02:07:11.334Z,2.50
2023-04-14T02:07:22.385Z,1.80
2023-04-14T02:07:33.348Z,1.80
2023-04-14T02:07:44.108Z,1.60
2023-04-14T02:07:55.173Z,1.50
2023-04-14T02:08:06.138Z,1.00
2023-04-14T02:08:16.906Z,0.80
2023-04-14T02:08:27.947Z,1.10
2023-04-14T02:08:38.913Z,2.00
2023-04-14T02:08:49.673Z,2.90
2023-04-14T02:09:00.822Z,2.60
2023-04-14T02:09:11.316Z,2.40
2023-04-14T02:09:22.081Z,1.70
2023-04-14T02:09:33.149Z,1.40
2023-04-14T02:09:44.113Z,1.60
2023-04-14T02:09:54.868Z,1.40
2023-04-14T02:10:05.907Z,2.10
2023-04-14T02:10:16.875Z,2.00
2023-04-14T02:10:27.639Z,2.00
2023-04-14T02:10:38.692Z,1.50
2023-04-14T02:10:49.648Z,1.40
2023-04-14T02:11:00.421Z,1.40
2023-04-14T02:11:11.477Z,1.70
2023-04-14T02:11:22.439Z,1.90
2023-04-14T02:11:33.207Z,2.70
2023-04-14T02:11:44.276Z,3.00
2023-04-14T02:11:55.239Z,2.90
2023-04-14T02:12:06.010Z,2.70
2023-04-14T02:12:17.052Z,2.50
2023-04-14T02:12:28.019Z,2.20
2023-04-14T02:12:38.782Z,1.90
2023-04-14T02:12:49.827Z,1.60
2023-04-14T02:13:00.793Z,1.50
2023-04-14T02:13:11.555Z,1.70
2023-04-14T02:13:22.601Z,1.80
2023-04-14T02:13:33.568Z,1.60
2023-04-14T02:13:44.345Z,1.40
2023-04-14T02:13:55.382Z,1.30
2023-04-14T02:14:06.366Z,1.70
2023-04-14T02:14:17.114Z,1.80
2023-04-14T02:14:28.158Z,1.50
2023-04-14T02:14:39.123Z,1.70
2023-04-14T02:14:49.888Z,1.50
2023-04-14T02:15:00.937Z,1.50
2023-04-14T02:15:11.900Z,1.60
2023-04-14T02:15:22.661Z,1.90
2023-04-14T02:15:33.711Z,1.60
2023-04-14T02:15:44.686Z,2.90
2023-04-14T02:15:55.443Z,2.90
2023-04-14T02:16:06.522Z,2.20
2023-04-14T02:16:17.534Z,2.50
2023-04-14T02:16:28.263Z,2.40
2023-04-14T02:16:39.389Z,2.20
2023-04-14T02:16:49.881Z,1.90
2023-04-14T02:17:00.688Z,1.70
2023-04-14T02:17:11.255Z,1.80
2023-04-14T02:17:22.313Z,2.40
2023-04-14T02:17:33.086Z,2.80
2023-04-14T02:17:44.131Z,2.90
2023-04-14T02:17:55.110Z,2.60
2023-04-14T02:18:05.838Z,2.00
2023-04-14T02:18:16.884Z,1.60
2023-04-14T02:18:27.853Z,1.80
2023-04-14T02:18:38.628Z,2.10
2023-04-14T02:18:49.668Z,2.20
2023-04-14T02:19:00.854Z,2.00
2023-04-14T02:19:11.720Z,1.80
2023-04-14T02:19:22.806Z,1.60
2023-04-14T02:19:33.742Z,1.90
2023-04-14T02:19:44.497Z,1.60
2023-04-14T02:19:55.543Z,1.50
2023-04-14T02:20:06.545Z,1.40
2023-04-14T02:20:17.277Z,1.90
2023-04-14T02:20:28.332Z,1.60
2023-04-14T02:20:39.284Z,1.50
2023-04-14T02:20:50.051Z,1.20
2023-04-14T02:21:01.098Z,1.40
2023-04-14T02:21:12.070Z,2.50
2023-04-14T02:21:22.855Z,2.70
2023-04-14T02:21:33.896Z,2.70
2023-04-14T02:21:44.859Z,1.80
2023-04-14T02:21:55.641Z,1.10
2023-04-14T02:22:06.689Z,1.10
2023-04-14T02:22:17.676Z,1.70
2023-04-14T02:22:28.433Z,2.10
2023-04-14T02:22:39.483Z,1.80
2023-04-14T02:22:50.448Z,1.90
2023-04-14T02:23:01.239Z,1.70
2023-04-14T02:23:12.268Z,2.70
2023-04-14T02:23:23.229Z,2.40
2023-04-14T02:23:33.996Z,1.90
2023-04-14T02:23:45.039Z,1.70
2023-04-14T02:23:56.007Z,1.80
2023-04-14T02:24:06.777Z,1.70
2023-04-14T02:24:17.823Z,1.90
2023-04-14T02:24:28.778Z,1.50
2023-04-14T02:24:39.547Z,1.20
2023-04-14T02:24:50.609Z,1.30
2023-04-14T02:25:01.594Z,1.40
2023-04-14T02:25:12.336Z,1.40